Time;durP1;ratioP1;P1;durP2;ratioP2;P2;SDS_P1;SDS_P2;PMS_P1;PMS_P2;Temp;Humidity;BMP_temperature;BMP_pressure;BME280_temperature;BME280_humidity;BME280_pressure;Samples;Min_cycle;Max_cycle;Signal;HPM_P1;HPM_P2
2024/04/15 00:00:24;;;;;;;11.23;10.10;;;;;;;;;;5314911;26;19997;-96
2024/04/15 00:02:50;;;;;;;9.75;8.80;;;;;;;;;;5321462;26;19993;-95
2024/04/15 00:05:17;;;;;;;9.50;8.07;;;;;;;;;;5347944;26;20029;-96
2024/04/15 00:07:43;;;;;;;9.68;8.32;;;;;;;;;;5323808;26;20021;-96
2024/04/15 00:10:09;;;;;;;9.88;8.85;;;;;;;;;;5314681;26;19997;-96
2024/04/15 00:12:35;;;;;;;8.38;7.60;;;;;;;;;;5296366;27;20006;-95
2024/04/15 00:15:01;;;;;;;9.70;8.65;;;;;;;;;;5285638;27;20009;-96
2024/04/15 00:17:28;;;;;;;11.05;9.02;;;;;;;;;;5285582;27;20002;-94
2024/04/15 00:19:54;;;;;;;8.65;7.85;;;;;;;;;;5291846;27;20029;-95
2024/04/15 00:22:20;;;;;;;10.98;7.63;;;;;;;;;;5314194;27;20330;-96
2024/04/15 00:24:47;;;;;;;9.40;7.95;;;;;;;;;;5314130;27;20009;-95
2024/04/15 00:27:14;;;;;;;9.35;7.10;;;;;;;;;;5312430;27;20002;-96
2024/04/15 00:29:41;;;;;;;7.97;6.80;;;;;;;;;;5313968;27;20009;-95
2024/04/15 00:32:07;;;;;;;9.15;8.15;;;;;;;;;;5299598;27;20002;-95
2024/04/15 00:34:33;;;;;;;9.95;8.48;;;;;;;;;;5314296;27;20002;-96
2024/04/15 00:37:00;;;;;;;8.27;7.47;;;;;;;;;;5314334;27;20005;-96
2024/04/15 00:39:26;;;;;;;8.48;7.68;;;;;;;;;;5290228;27;20017;-96
2024/04/15 00:41:52;;;;;;;10.32;9.35;;;;;;;;;;5286580;27;20006;-95
2024/04/15 00:44:18;;;;;;;10.63;9.30;;;;;;;;;;5313973;27;20017;-96
2024/04/15 00:46:45;;;;;;;11.00;8.98;;;;;;;;;;5287030;27;20013;-96
2024/04/15 00:49:11;;;;;;;11.18;8.60;;;;;;;;;;5285318;27;20002;-95
2024/04/15 00:51:40;;;;;;;8.68;6.53;;;;;;;;;;5285400;27;20005;-96
2024/04/15 00:54:06;;;;;;;13.57;9.40;;;;;;;;;;5286671;27;20005;-96
2024/04/15 00:56:33;;;;;;;11.65;8.73;;;;;;;;;;5314078;27;20002;-96
2024/04/15 00:59:00;;;;;;;9.00;8.13;;;;;;;;;;5315353;27;20166;-95
2024/04/15 01:01:26;;;;;;;9.88;8.85;;;;;;;;;;5298485;27;20001;-96
2024/04/15 01:03:54;;;;;;;9.85;8.93;;;;;;;;;;5286461;27;19997;-96
2024/04/15 01:06:20;;;;;;;10.63;8.43;;;;;;;;;;5311406;27;20048;-96
2024/04/15 01:08:46;;;;;;;11.32;8.90;;;;;;;;;;5284806;27;20051;-96
2024/04/15 01:11:13;;;;;;;9.48;7.45;;;;;;;;;;5336878;26;20008;-95
2024/04/15 01:13:40;;;;;;;9.65;7.72;;;;;;;;;;5347769;26;20013;-96
2024/04/15 01:16:06;;;;;;;9.75;8.93;;;;;;;;;;5347868;26;20033;-94
2024/04/15 01:18:32;;;;;;;11.35;10.38;;;;;;;;;;5348044;26;20452;-94
2024/04/15 01:20:59;;;;;;;10.20;7.78;;;;;;;;;;5348178;26;20001;-95
2024/04/15 01:23:31;;;;;;;9.13;8.23;;;;;;;;;;5347561;26;20334;-95
2024/04/15 01:25:57;;;;;;;9.15;8.25;;;;;;;;;;5347837;26;20007;-95
2024/04/15 01:28:23;;;;;;;11.90;8.77;;;;;;;;;;5347703;26;20051;-96
2024/04/15 01:30:49;;;;;;;11.23;10.18;;;;;;;;;;5324504;26;20335;-96
2024/04/15 01:33:15;;;;;;;10.48;9.38;;;;;;;;;;5313221;26;20045;-95
2024/04/15 01:35:42;;;;;;;13.13;10.52;;;;;;;;;;5313235;26;20017;-96
2024/04/15 01:38:08;;;;;;;10.23;9.18;;;;;;;;;;5313575;26;20002;-94
2024/04/15 01:40:34;;;;;;;8.93;8.13;;;;;;;;;;5319375;26;20009;-95
2024/04/15 01:43:01;;;;;;;11.13;9.98;;;;;;;;;;5350857;26;20082;-94
2024/04/15 01:45:27;;;;;;;9.60;8.70;;;;;;;;;;5350370;26;20008;-96
2024/04/15 01:47:53;;;;;;;11.27;8.93;;;;;;;;;;5361239;26;20005;-95
2024/04/15 01:50:20;;;;;;;11.43;9.35;;;;;;;;;;5367317;26;20013;-96
2024/04/15 01:52:47;;;;;;;13.02;9.65;;;;;;;;;;5354411;26;19997;-96
2024/04/15 01:55:13;;;;;;;12.05;8.18;;;;;;;;;;5350863;26;20012;-96
2024/04/15 01:57:39;;;;;;;10.43;8.10;;;;;;;;;;5350588;26;20001;-95
2024/04/15 02:00:06;;;;;;;13.02;9.57;;;;;;;;;;5330664;26;20006;-96
2024/04/15 02:02:32;;;;;;;10.27;8.35;;;;;;;;;;5316595;26;20008;-96
2024/04/15 02:04:59;;;;;;;9.13;8.20;;;;;;;;;;5316001;26;20052;-96
2024/04/15 02:07:26;;;;;;;8.52;7.55;;;;;;;;;;5315928;26;20012;-96
2024/04/15 02:09:52;;;;;;;10.70;9.27;;;;;;;;;;5316018;26;20000;-96
2024/04/15 02:12:19;;;;;;;9.85;8.80;;;;;;;;;;5323704;26;20005;-96
2024/04/15 02:14:45;;;;;;;9.13;8.15;;;;;;;;;;5350861;26;20012;-96
2024/04/15 02:17:11;;;;;;;9.20;8.32;;;;;;;;;;5350696;26;20012;-96
2024/04/15 02:19:37;;;;;;;10.68;8.63;;;;;;;;;;5350711;26;20001;-96
2024/04/15 02:22:03;;;;;;;9.68;8.25;;;;;;;;;;5350662;26;20073;-96
2024/04/15 02:24:30;;;;;;;10.15;9.13;;;;;;;;;;5350098;26;20001;-96
2024/04/15 02:26:56;;;;;;;10.63;9.30;;;;;;;;;;5350687;26;20008;-96
2024/04/15 02:29:22;;;;;;;12.07;8.85;;;;;;;;;;5332634;26;20076;-96
2024/04/15 02:31:48;;;;;;;10.68;8.90;;;;;;;;;;5324051;26;20016;-96
2024/04/15 02:34:17;;;;;;;10.00;9.00;;;;;;;;;;5350218;26;20007;-95
2024/04/15 02:36:43;;;;;;;11.02;9.27;;;;;;;;;;5350006;26;20032;-95
2024/04/15 02:39:10;;;;;;;11.05;9.75;;;;;;;;;;5349921;26;20438;-96
2024/04/15 02:41:52;;;;;;;10.18;8.75;;;;;;;;;;5317514;26;20017;-95
2024/04/15 02:44:18;;;;;;;12.48;9.57;;;;;;;;;;5315431;26;20001;-96
2024/04/15 02:46:44;;;;;;;10.75;9.68;;;;;;;;;;5316507;26;19997;-96
2024/04/15 02:49:10;;;;;;;10.93;9.82;;;;;;;;;;5316259;26;20014;-96
2024/04/15 02:51:37;;;;;;;10.70;9.10;;;;;;;;;;5346675;26;20001;-96
2024/04/15 02:54:03;;;;;;;9.80;8.00;;;;;;;;;;5351024;26;20020;-95
2024/04/15 02:56:29;;;;;;;11.30;10.10;;;;;;;;;;5337891;26;20002;-95
2024/04/15 02:58:55;;;;;;;11.80;8.75;;;;;;;;;;5315441;26;20002;-96
2024/04/15 03:01:21;;;;;;;10.68;9.07;;;;;;;;;;5315537;26;20009;-96
2024/04/15 03:03:48;;;;;;;12.35;9.23;;;;;;;;;;5315086;26;20001;-96
2024/04/15 03:06:18;;;;;;;12.20;9.63;;;;;;;;;;5314880;26;20008;-96
2024/04/15 03:08:45;;;;;;;10.82;9.23;;;;;;;;;;5342949;26;20001;-95
2024/04/15 03:11:11;;;;;;;10.23;9.25;;;;;;;;;;5349224;26;20001;-96
2024/04/15 03:13:37;;;;;;;11.23;10.13;;;;;;;;;;5350195;26;20013;-96
2024/04/15 03:16:04;;;;;;;11.73;10.40;;;;;;;;;;5349516;26;20001;-96
2024/04/15 03:18:30;;;;;;;10.35;9.25;;;;;;;;;;5349852;26;19997;-96
2024/04/15 03:20:56;;;;;;;11.32;9.88;;;;;;;;;;5350047;26;20000;-95
2024/04/15 03:23:22;;;;;;;12.63;10.23;;;;;;;;;;5350009;26;20422;-95
2024/04/15 03:25:48;;;;;;;11.57;10.20;;;;;;;;;;5349252;26;20011;-95
2024/04/15 03:28:14;;;;;;;10.30;9.20;;;;;;;;;;5349555;26;20009;-95
2024/04/15 03:30:40;;;;;;;12.80;10.52;;;;;;;;;;5350122;26;19997;-96
2024/04/15 03:33:06;;;;;;;8.95;7.93;;;;;;;;;;5366249;26;19997;-95
2024/04/15 03:35:33;;;;;;;13.20;10.23;;;;;;;;;;5333677;26;20002;-96
2024/04/15 03:37:59;;;;;;;13.32;10.35;;;;;;;;;;5319587;26;20008;-95
2024/04/15 03:40:25;;;;;;;11.88;10.63;;;;;;;;;;5314986;26;20462;-95
2024/04/15 03:42:51;;;;;;;13.38;10.32;;;;;;;;;;5329473;26;20006;-96
2024/04/15 03:45:17;;;;;;;14.73;11.40;;;;;;;;;;5314369;26;20013;-96
2024/04/15 03:47:43;;;;;;;12.77;11.48;;;;;;;;;;5314768;26;19998;-96
2024/04/15 03:50:09;;;;;;;14.05;10.68;;;;;;;;;;5323969;26;20004;-96
2024/04/15 03:52:36;;;;;;;12.13;10.82;;;;;;;;;;5348561;26;19997;-96
2024/04/15 03:55:03;;;;;;;9.02;8.23;;;;;;;;;;5341936;26;20033;-95
2024/04/15 03:57:29;;;;;;;11.50;10.50;;;;;;;;;;5314185;26;20002;-96
2024/04/15 03:59:55;;;;;;;12.38;11.18;;;;;;;;;;5314334;26;20453;-95
2024/04/15 04:02:21;;;;;;;12.32;11.13;;;;;;;;;;5313684;26;20013;-95
2024/04/15 04:04:48;;;;;;;9.73;8.73;;;;;;;;;;5314203;26;20009;-95
2024/04/15 04:07:14;;;;;;;13.85;10.43;;;;;;;;;;5348819;26;20012;-96
2024/04/15 04:09:40;;;;;;;12.25;10.95;;;;;;;;;;5348215;26;20064;-94
2024/04/15 04:12:06;;;;;;;14.13;10.35;;;;;;;;;;5348809;26;20001;-95
2024/04/15 04:14:32;;;;;;;13.93;11.43;;;;;;;;;;5348465;26;19997;-95
2024/04/15 04:16:58;;;;;;;12.10;11.00;;;;;;;;;;5348317;26;20092;-94
2024/04/15 04:19:25;;;;;;;13.75;11.90;;;;;;;;;;5348509;26;20001;-94
2024/04/15 04:21:51;;;;;;;13.30;10.93;;;;;;;;;;5336911;26;20018;-96
2024/04/15 04:24:19;;;;;;;15.20;12.88;;;;;;;;;;5328077;26;20011;-95
2024/04/15 04:26:45;;;;;;;14.15;12.43;;;;;;;;;;5313733;26;20037;-96
2024/04/15 04:29:11;;;;;;;14.95;12.80;;;;;;;;;;5343007;26;20008;-96
2024/04/15 04:31:40;;;;;;;14.23;12.82;;;;;;;;;;5347989;26;20051;-93
2024/04/15 04:34:07;;;;;;;17.13;15.43;;;;;;;;;;5333389;26;20005;-93
2024/04/15 04:36:33;;;;;;;13.73;12.43;;;;;;;;;;5349649;26;19997;-95
2024/04/15 04:38:59;;;;;;;15.57;14.07;;;;;;;;;;5347867;26;19997;-94
2024/04/15 04:41:25;;;;;;;18.27;14.52;;;;;;;;;;5347925;26;20448;-95
2024/04/15 04:43:51;;;;;;;14.50;13.15;;;;;;;;;;5348159;26;20000;-95
2024/04/15 04:46:17;;;;;;;17.13;15.63;;;;;;;;;;5347866;26;20000;-95
2024/04/15 04:48:43;;;;;;;15.38;13.82;;;;;;;;;;5347500;26;19997;-94
2024/04/15 04:51:12;;;;;;;14.65;13.27;;;;;;;;;;5347741;26;20452;-94
2024/04/15 04:53:39;;;;;;;15.20;13.65;;;;;;;;;;5347271;26;20009;-96
2024/04/15 04:56:11;;;;;;;15.52;14.10;;;;;;;;;;5347400;26;20413;-95
2024/04/15 04:58:41;;;;;;;13.57;12.13;;;;;;;;;;5347826;26;20012;-96
2024/04/15 05:01:17;;;;;;;13.77;11.55;;;;;;;;;;5347909;26;20012;-94
2024/04/15 05:03:50;;;;;;;13.20;11.07;;;;;;;;;;5336972;26;20001;-93
2024/04/15 05:06:17;;;;;;;12.25;11.05;;;;;;;;;;5346715;26;20025;-93
2024/04/15 05:08:47;;;;;;;13.63;12.40;;;;;;;;;;5346846;26;20017;-92
2024/04/15 05:11:23;;;;;;;17.05;13.70;;;;;;;;;;5347154;26;20013;-94
2024/04/15 05:13:49;;;;;;;15.15;13.75;;;;;;;;;;5346803;26;20001;-94
2024/04/15 05:16:24;;;;;;;14.52;13.13;;;;;;;;;;5347448;26;20032;-94
2024/04/15 05:19:08;;;;;;;14.55;13.15;;;;;;;;;;5361171;26;20005;-90
2024/04/15 05:21:57;;;;;;;17.35;13.82;;;;;;;;;;5349329;26;19997;-94
2024/04/15 05:24:54;;;;;;;;;;;;;;;;;;;;;
2024/04/15 05:27:35;;;;;;;19.38;17.52;;;;;;;;;;5348517;26;20461;-94
2024/04/15 05:30:16;;;;;;;16.48;15.07;;;;;;;;;;5344996;26;20465;-92
2024/04/15 05:32:51;;;;;;;20.80;19.30;;;;;;;;;;5317874;27;19994;-96
2024/04/15 05:35:20;;;;;;;19.42;17.92;;;;;;;;;;5341133;26;20005;-94
2024/04/15 05:40:39;;;;;;;22.75;20.75;;;;;;;;;;5347212;26;20012;-93
2024/04/15 05:43:14;;;;;;;28.50;26.15;;;;;;;;;;5346264;26;20145;-94
2024/04/15 05:45:44;;;;;;;28.58;26.45;;;;;;;;;;5346033;26;20079;-94
2024/04/15 05:48:28;;;;;;;28.25;26.10;;;;;;;;;;5346173;26;20008;-93
2024/04/15 05:51:05;;;;;;;30.83;28.48;;;;;;;;;;5344940;26;20005;-93
2024/04/15 05:53:38;;;;;;;33.40;31.00;;;;;;;;;;5346371;26;20076;-92
2024/04/15 05:56:06;;;;;;;29.20;26.73;;;;;;;;;;5343292;26;20008;-93
2024/04/15 05:58:38;;;;;;;38.78;35.80;;;;;;;;;;5346635;26;20032;-93
2024/04/15 06:01:08;;;;;;;31.33;28.70;;;;;;;;;;5346025;26;20334;-94
2024/04/15 06:03:34;;;;;;;21.38;19.67;;;;;;;;;;5349920;26;20442;-92
2024/04/15 06:06:00;;;;;;;15.00;13.82;;;;;;;;;;5346475;26;20017;-95
2024/04/15 06:08:26;;;;;;;15.00;13.82;;;;;;;;;;5346132;26;20448;-94
2024/04/15 06:10:52;;;;;;;11.88;7.18;;;;;;;;;;5346064;26;20008;-92
2024/04/15 06:13:19;;;;;;;10.55;7.80;;;;;;;;;;5345507;26;20017;-92
2024/04/15 06:15:51;;;;;;;10.82;5.25;;;;;;;;;;5346092;26;19993;-93
2024/04/15 06:18:20;;;;;;;10.85;6.10;;;;;;;;;;5346594;26;20001;-94
2024/04/15 06:24:08;;;;;;;7.47;5.55;;;;;;;;;;5348078;26;20052;-93
2024/04/15 06:38:23;;;;;;;8.23;5.88;;;;;;;;;;5233092;27;20080;-92
2024/04/15 06:40:49;;;;;;;9.57;5.65;;;;;;;;;;5218656;27;19995;-90
2024/04/15 06:43:24;;;;;;;5.80;4.30;;;;;;;;;;5217584;27;20015;-90
2024/04/15 06:45:53;;;;;;;6.85;4.88;;;;;;;;;;5323661;26;20001;-92
2024/04/15 06:48:20;;;;;;;7.65;5.35;;;;;;;;;;5320538;26;20021;-90
2024/04/15 06:50:50;;;;;;;6.80;6.07;;;;;;;;;;5319721;26;20006;-89
2024/04/15 06:53:28;;;;;;;11.25;6.28;;;;;;;;;;5285261;27;20009;-89
2024/04/15 06:56:06;;;;;;;8.52;6.68;;;;;;;;;;5327772;26;20011;-92
2024/04/15 06:58:39;;;;;;;6.22;5.40;;;;;;;;;;5357064;26;20414;-91
2024/04/15 07:01:05;;;;;;;9.80;6.53;;;;;;;;;;5344552;26;20049;-90
2024/04/15 07:06:33;;;;;;;8.75;7.55;;;;;;;;;;5360772;26;20016;-93
2024/04/15 07:16:49;;;;;;;9.27;8.18;;;;;;;;;;6237631;21;20080;-95
2024/04/15 07:22:55;;;;;;;9.32;7.03;;;;;;;;;;5349838;26;20012;-94
2024/04/15 07:25:39;;;;;;;10.85;8.95;;;;;;;;;;5259778;27;20355;-96
2024/04/15 07:28:35;;;;;;;7.30;6.53;;;;;;;;;;5331990;26;20000;-95
2024/04/15 07:31:32;;;;;;;8.18;7.18;;;;;;;;;;5329067;26;20001;-95
2024/04/15 07:34:44;;;;;;;;;;;;;;;;;;;;;
2024/04/15 07:37:39;;;;;;;8.70;7.03;;;;;;;;;;5244242;27;20002;-94
2024/04/15 07:43:01;;;;;;;9.02;7.35;;;;;;;;;;5244882;27;20009;-96
2024/04/15 07:45:41;;;;;;;8.35;7.05;;;;;;;;;;5211202;27;20004;-94
2024/04/15 07:48:28;;;;;;;10.27;7.22;;;;;;;;;;5211777;27;20421;-93
2024/04/15 07:59:30;;;;;;;11.88;5.88;;;;;;;;;;5825647;21;20024;-95
2024/04/15 08:02:11;;;;;;;8.10;5.88;;;;;;;;;;5348255;26;20005;-91
2024/04/15 08:04:47;;;;;;;;;;;;;;;;;;;;;
2024/04/15 08:10:06;;;;;;;8.43;6.25;;;;;;;;;;5254826;27;20339;-94
2024/04/15 08:16:06;;;;;;;6.45;5.20;;;;;;;;;;5253198;27;20046;-94
2024/04/15 08:18:52;;;;;;;7.28;6.07;;;;;;;;;;5241171;27;20348;-94
2024/04/15 08:21:21;;;;;;;6.72;5.60;;;;;;;;;;5215711;27;20011;-93
2024/04/15 08:23:50;;;;;;;8.75;4.65;;;;;;;;;;5216216;27;19995;-93
2024/04/15 08:26:19;;;;;;;8.98;5.00;;;;;;;;;;5197058;27;20008;-93
2024/04/15 08:28:48;;;;;;;10.75;5.60;;;;;;;;;;5262974;27;20013;-93
2024/04/15 08:31:27;;;;;;;;;;;;;;;;;;;;;
2024/04/15 08:34:05;;;;;;;7.00;4.60;;;;;;;;;;5308114;27;20064;-94
2024/04/15 08:36:55;;;;;;;6.30;3.60;;;;;;;;;;5227072;27;20019;-95
2024/04/15 09:06:25;;;;;;;5.05;2.85;;;;;;;;;;5348202;26;20049;-92
2024/04/15 09:09:03;;;;;;;7.22;3.28;;;;;;;;;;5317978;26;19996;-92
2024/04/15 09:11:33;;;;;;;11.82;2.90;;;;;;;;;;5342808;26;20037;-90
2024/04/15 09:14:12;;;;;;;6.88;3.67;;;;;;;;;;5352845;26;20011;-91
2024/04/15 09:19:45;;;;;;;6.47;4.10;;;;;;;;;;5246911;27;20047;-91
2024/04/15 09:22:31;;;;;;;5.60;4.30;;;;;;;;;;5241606;27;20090;-96
2024/04/15 09:25:05;;;;;;;6.47;3.78;;;;;;;;;;5277516;27;20002;-90
2024/04/15 09:27:55;;;;;;;4.60;3.35;;;;;;;;;;5276719;27;20006;-92
2024/04/15 09:30:30;;;;;;;5.05;4.65;;;;;;;;;;5278427;27;20002;-93
2024/04/15 09:33:15;;;;;;;;;;;;;;;;;;;;;
2024/04/15 09:35:48;;;;;;;6.40;3.88;;;;;;;;;;5123818;27;20017;-91
2024/04/15 09:38:15;;;;;;;4.85;4.00;;;;;;;;;;5112473;27;20042;-91
2024/04/15 09:40:43;;;;;;;6.05;5.38;;;;;;;;;;5251570;27;20007;-91
2024/04/15 09:49:24;;;;;;;9.52;6.40;;;;;;;;;;5273930;27;20009;-93
2024/04/15 09:51:57;;;;;;;11.05;7.93;;;;;;;;;;5221936;27;20014;-95
2024/04/15 09:58:06;;;;;;;7.63;6.47;;;;;;;;;;5210089;27;20496;-94
2024/04/15 10:07:06;;;;;;;7.65;6.95;;;;;;;;;;5246329;27;20069;-95
2024/04/15 10:15:52;;;;;;;11.93;8.02;;;;;;;;;;5255894;26;20410;-96
2024/04/15 10:18:52;;;;;;;9.27;8.35;;;;;;;;;;5226573;27;19998;-95
2024/04/15 10:21:33;;;;;;;8.07;6.95;;;;;;;;;;5172002;27;20004;-96
2024/04/15 10:24:13;;;;;;;9.70;8.68;;;;;;;;;;5205162;27;20006;-95
2024/04/15 10:35:26;;;;;;;7.32;6.65;;;;;;;;;;5408669;26;20025;-94
2024/04/15 10:40:43;;;;;;;8.00;7.32;;;;;;;;;;6271051;21;19996;-95
2024/04/15 10:45:51;;;;;;;7.85;7.15;;;;;;;;;;6497839;21;19935;-95
2024/04/15 10:48:43;;;;;;;7.63;6.85;;;;;;;;;;5381390;26;20324;-96
2024/04/15 10:51:22;;;;;;;;;;;;;;;;;;;;;
2024/04/15 10:57:00;;;;;;;;;;;;;;;;;;5413850;26;20075;-96
2024/04/15 11:02:42;;;;;;;10.93;10.02;;;;;;;;;;5322878;26;20031;-93
2024/04/15 11:11:24;;;;;;;14.63;13.52;;;;;;;;;;5352117;26;20032;-92
2024/04/15 11:13:52;;;;;;;8.35;7.65;;;;;;;;;;5350258;26;20032;-92
2024/04/15 11:16:21;;;;;;;8.20;7.65;;;;;;;;;;5353948;26;20008;-91
2024/04/15 11:18:54;;;;;;;11.13;10.30;;;;;;;;;;5310179;26;20015;-92
2024/04/15 11:21:36;;;;;;;11.77;10.88;;;;;;;;;;5316775;26;20480;-92
2024/04/15 11:24:16;;;;;;;6.68;6.07;;;;;;;;;;5319182;26;20081;-92
2024/04/15 11:26:48;;;;;;;5.97;5.47;;;;;;;;;;5369452;26;20058;-89
2024/04/15 11:29:18;;;;;;;10.70;9.90;;;;;;;;;;5351030;26;19997;-89
2024/04/15 11:32:07;;;;;;;6.90;6.43;;;;;;;;;;5333011;26;20079;-90
2024/04/15 11:34:39;;;;;;;7.00;6.45;;;;;;;;;;5324295;26;20001;-89
2024/04/15 11:42:57;;;;;;;7.53;6.93;;;;;;;;;;5352076;26;20028;-91
2024/04/15 11:45:26;;;;;;;8.30;7.57;;;;;;;;;;5347985;26;20560;-95
2024/04/15 11:47:56;;;;;;;5.75;5.25;;;;;;;;;;5353451;26;20001;-90
2024/04/15 11:50:40;;;;;;;6.72;6.13;;;;;;;;;;5366454;26;20016;-93
2024/04/15 11:53:25;;;;;;;6.05;5.63;;;;;;;;;;5363985;26;20000;-96
2024/04/15 12:02:20;;;;;;;;;;;;;;;;;;;;;
2024/04/15 12:04:54;;;;;;;6.20;5.78;;;;;;;;;;5412969;26;20014;-96
2024/04/15 12:07:42;;;;;;;8.02;7.50;;;;;;;;;;5389545;26;19995;-91
2024/04/15 12:10:21;;;;;;;7.50;7.00;;;;;;;;;;5407493;26;20016;-90
2024/04/15 12:21:33;;;;;;;8.20;7.60;;;;;;;;;;5377639;26;20010;-91
2024/04/15 12:24:02;;;;;;;8.02;7.53;;;;;;;;;;5383350;26;19996;-92
2024/04/15 12:26:49;;;;;;;7.28;6.78;;;;;;;;;;5383904;26;20011;-91
2024/04/15 12:29:28;;;;;;;6.93;6.43;;;;;;;;;;5383645;26;20077;-93
2024/04/15 12:31:54;;;;;;;6.60;6.10;;;;;;;;;;5384119;26;20004;-91
2024/04/15 12:37:25;;;;;;;8.07;6.35;;;;;;;;;;5383568;26;20015;-92
2024/04/15 12:39:54;;;;;;;7.30;6.70;;;;;;;;;;5382664;26;20012;-92
2024/04/15 12:42:21;;;;;;;8.48;7.85;;;;;;;;;;5382061;26;20004;-92
2024/04/15 12:44:47;;;;;;;8.18;7.68;;;;;;;;;;5324463;26;20013;-92
2024/04/15 12:47:30;;;;;;;7.60;7.00;;;;;;;;;;5257746;27;20471;-91
2024/04/15 12:50:03;;;;;;;7.72;7.13;;;;;;;;;;5249227;27;20446;-92
2024/04/15 12:52:31;;;;;;;9.23;8.55;;;;;;;;;;5232844;27;20002;-94
2024/04/15 12:55:21;;;;;;;12.25;11.40;;;;;;;;;;5249712;27;20478;-94
2024/04/15 13:01:21;;;;;;;11.05;10.35;;;;;;;;;;5272782;27;20021;-96
2024/04/15 13:03:50;;;;;;;14.45;13.20;;;;;;;;;;5236231;27;20569;-92
2024/04/15 13:06:38;;;;;;;12.07;11.27;;;;;;;;;;5249681;27;20188;-93
2024/04/15 13:09:07;;;;;;;12.13;11.40;;;;;;;;;;5271847;27;20488;-92
2024/04/15 13:11:49;;;;;;;;;;;;;;;;;;;;;
2024/04/15 13:14:16;;;;;;;19.35;17.77;;;;;;;;;;5277315;27;20006;-93
2024/04/15 13:16:52;;;;;;;17.23;16.23;;;;;;;;;;5306379;26;19997;-91
2024/04/15 13:19:27;;;;;;;18.05;16.80;;;;;;;;;;5376447;26;20000;-93
2024/04/15 13:22:00;;;;;;;17.63;16.42;;;;;;;;;;5411497;26;20067;-91
2024/04/15 13:24:32;;;;;;;21.02;19.80;;;;;;;;;;5411383;26;20019;-92
2024/04/15 13:27:13;;;;;;;15.52;14.52;;;;;;;;;;5411906;26;20442;-92
2024/04/15 13:29:39;;;;;;;19.98;18.67;;;;;;;;;;5391724;26;20036;-92
2024/04/15 13:32:28;;;;;;;15.38;14.20;;;;;;;;;;5313356;27;19997;-92
2024/04/15 13:35:00;;;;;;;18.63;17.20;;;;;;;;;;5393626;21;20103;-91
2024/04/15 13:37:35;;;;;;;16.75;15.50;;;;;;;;;;5341353;26;20029;-95
2024/04/15 13:40:10;;;;;;;15.35;14.07;;;;;;;;;;5320280;26;20001;-92
2024/04/15 13:42:42;;;;;;;18.95;17.77;;;;;;;;;;5318678;26;20049;-94
2024/04/15 13:45:30;;;;;;;16.83;15.65;;;;;;;;;;5318309;26;20008;-95
2024/04/15 13:48:12;;;;;;;17.33;15.77;;;;;;;;;;5320424;26;20012;-94
2024/04/15 13:50:38;;;;;;;14.93;13.93;;;;;;;;;;5319446;26;20075;-95
2024/04/15 13:53:25;;;;;;;19.85;18.65;;;;;;;;;;5337112;26;20011;-94
2024/04/15 13:55:57;;;;;;;16.67;15.57;;;;;;;;;;5355245;26;20007;-95
2024/04/15 14:01:18;;;;;;;18.95;17.67;;;;;;;;;;5382986;26;20069;-93
2024/04/15 14:03:45;;;;;;;20.40;19.10;;;;;;;;;;5330516;26;20012;-94
2024/04/15 14:06:14;;;;;;;20.58;19.02;;;;;;;;;;5318195;26;19997;-94
2024/04/15 14:08:41;;;;;;;14.80;13.63;;;;;;;;;;5317353;26;20075;-93
2024/04/15 14:11:11;;;;;;;17.45;16.30;;;;;;;;;;5317395;26;20001;-94
2024/04/15 14:13:37;;;;;;;22.23;20.73;;;;;;;;;;5327717;26;20001;-93
2024/04/15 14:16:10;;;;;;;18.95;17.73;;;;;;;;;;5349259;26;20000;-92
2024/04/15 14:18:37;;;;;;;;;;;;;;;;;;5317976;26;19997;-95
2024/04/15 14:21:06;;;;;;;17.92;16.75;;;;;;;;;;5318420;26;19961;-95
2024/04/15 14:23:33;;;;;;;16.50;15.50;;;;;;;;;;5318468;26;20355;-96
2024/04/15 14:26:17;;;;;;;20.42;18.95;;;;;;;;;;5317573;26;20005;-95
2024/04/15 14:28:43;;;;;;;21.20;19.83;;;;;;;;;;5317836;26;20036;-94
2024/04/15 14:31:12;;;;;;;22.65;21.00;;;;;;;;;;5317983;26;20011;-93
2024/04/15 14:33:38;;;;;;;19.02;17.67;;;;;;;;;;5318253;26;20015;-95
2024/04/15 14:36:14;;;;;;;11.60;10.63;;;;;;;;;;5317248;26;20004;-92
2024/04/15 14:38:43;;;;;;;11.50;10.70;;;;;;;;;;5317615;26;20756;-94
2024/04/15 14:41:10;;;;;;;9.48;8.88;;;;;;;;;;5343728;26;20004;-94
2024/04/15 14:43:36;;;;;;;7.20;6.70;;;;;;;;;;5351195;26;20811;-93
2024/04/15 14:46:03;;;;;;;5.93;5.43;;;;;;;;;;5350594;26;19992;-93
2024/04/15 14:48:32;;;;;;;9.27;8.57;;;;;;;;;;5354487;26;20008;-93
2024/04/15 14:50:58;;;;;;;8.30;7.57;;;;;;;;;;5320983;26;19997;-95
2024/04/15 14:53:29;;;;;;;10.70;9.90;;;;;;;;;;5320538;26;20397;-92
2024/04/15 14:56:13;;;;;;;10.75;9.95;;;;;;;;;;5350214;26;20004;-92
2024/04/15 14:58:40;;;;;;;9.48;8.88;;;;;;;;;;5321291;26;20001;-92
2024/04/15 15:01:09;;;;;;;16.52;15.32;;;;;;;;;;5320769;26;20471;-92
2024/04/15 15:03:35;;;;;;;12.93;11.82;;;;;;;;;;5334147;26;20015;-94
2024/04/15 15:06:08;;;;;;;9.20;8.48;;;;;;;;;;5355687;26;20517;-92
2024/04/15 15:08:35;;;;;;;7.60;7.00;;;;;;;;;;5355415;26;20429;-93
2024/04/15 15:11:02;;;;;;;8.90;8.20;;;;;;;;;;5355394;26;19997;-91
2024/04/15 15:13:29;;;;;;;11.07;9.50;;;;;;;;;;5355386;26;20069;-92
2024/04/15 15:15:58;;;;;;;9.35;8.75;;;;;;;;;;5354193;26;19996;-92
2024/04/15 15:18:25;;;;;;;12.38;11.32;;;;;;;;;;5346213;26;20054;-90
2024/04/15 15:20:51;;;;;;;10.45;9.63;;;;;;;;;;5355703;26;20000;-91
2024/04/15 15:23:43;;;;;;;12.63;11.45;;;;;;;;;;5358422;26;19997;-91
2024/04/15 15:26:12;;;;;;;9.20;8.38;;;;;;;;;;5357384;26;20000;-93
2024/04/15 15:28:39;;;;;;;8.98;7.72;;;;;;;;;;5356561;26;20436;-94
2024/04/15 15:31:05;;;;;;;8.52;7.80;;;;;;;;;;5354473;26;19997;-94
2024/04/15 15:36:44;;;;;;;9.73;7.60;;;;;;;;;;5395278;26;19995;-93
2024/04/15 15:39:11;;;;;;;9.52;7.97;;;;;;;;;;5357255;26;20008;-94
2024/04/15 15:41:44;;;;;;;12.30;7.63;;;;;;;;;;5354983;26;20420;-94
2024/04/15 15:44:16;;;;;;;10.20;9.03;;;;;;;;;;5355907;26;20007;-94
2024/04/15 15:47:11;;;;;;;12.98;12.05;;;;;;;;;;5320335;26;20270;-95
2024/04/15 15:49:46;;;;;;;10.15;8.27;;;;;;;;;;5322311;26;19997;-95
2024/04/15 15:52:22;;;;;;;10.70;9.73;;;;;;;;;;5320202;26;20008;-95
2024/04/15 15:54:48;;;;;;;10.43;9.45;;;;;;;;;;5321327;26;20016;-94
2024/04/15 15:57:15;;;;;;;11.43;10.32;;;;;;;;;;5319094;26;20422;-93
2024/04/15 16:05:33;;;;;;;9.80;9.02;;;;;;;;;;5364828;26;20041;-95
2024/04/15 16:08:03;;;;;;;10.65;9.85;;;;;;;;;;5320211;26;19996;-92
2024/04/15 16:10:44;;;;;;;12.23;11.32;;;;;;;;;;5350315;26;20001;-94
2024/04/15 16:13:17;;;;;;;10.57;9.70;;;;;;;;;;5320015;26;20070;-94
2024/04/15 16:15:50;;;;;;;12.23;11.20;;;;;;;;;;5320328;26;19997;-93
2024/04/15 16:18:16;;;;;;;12.15;11.15;;;;;;;;;;5319712;26;20021;-94
2024/04/15 16:23:29;;;;;;;13.15;11.73;;;;;;;;;;5393489;21;20014;-93
2024/04/15 16:25:58;;;;;;;14.00;11.80;;;;;;;;;;5389255;26;20006;-95
2024/04/15 16:28:45;;;;;;;16.73;15.25;;;;;;;;;;5383452;26;20018;-94
2024/04/15 16:31:27;;;;;;;18.50;17.02;;;;;;;;;;5408838;26;20390;-94
2024/04/15 16:33:53;;;;;;;17.10;15.65;;;;;;;;;;5379818;26;19995;-93
2024/04/15 16:36:19;;;;;;;15.18;13.60;;;;;;;;;;5388410;26;20006;-92
2024/04/15 16:38:51;;;;;;;20.40;18.73;;;;;;;;;;5366351;26;20012;-94
2024/04/15 16:41:33;;;;;;;16.35;15.00;;;;;;;;;;5368819;26;20015;-94
2024/04/15 16:43:59;;;;;;;20.58;18.90;;;;;;;;;;5388695;26;20069;-93
2024/04/15 16:46:25;;;;;;;18.35;16.85;;;;;;;;;;5373480;26;20080;-95
2024/04/15 16:48:55;;;;;;;17.45;15.95;;;;;;;;;;5388513;26;20006;-94
2024/04/15 16:51:21;;;;;;;21.02;19.17;;;;;;;;;;5375715;26;20015;-94
2024/04/15 16:53:47;;;;;;;21.52;19.58;;;;;;;;;;5392110;26;19999;-94
2024/04/15 16:56:36;;;;;;;;;;;;;;;;;;;;;
2024/04/15 16:59:02;;;;;;;24.20;22.25;;;;;;;;;;5402732;26;19996;-94
2024/04/15 17:01:28;;;;;;;20.80;19.40;;;;;;;;;;5389030;26;19995;-92
2024/04/15 17:03:55;;;;;;;23.40;21.50;;;;;;;;;;5376385;26;19995;-94
2024/04/15 17:09:24;;;;;;;18.45;17.05;;;;;;;;;;5387051;26;20065;-94
2024/04/15 17:14:54;;;;;;;16.23;15.02;;;;;;;;;;5391674;26;20316;-94
2024/04/15 17:17:27;;;;;;;20.13;18.45;;;;;;;;;;5546336;21;20008;-95
2024/04/15 17:19:58;;;;;;;19.80;18.07;;;;;;;;;;5319267;26;20366;-94
2024/04/15 17:22:34;;;;;;;18.58;17.05;;;;;;;;;;5325000;26;20688;-94
2024/04/15 17:25:00;;;;;;;22.83;20.98;;;;;;;;;;5356086;21;20015;-95
2024/04/15 17:27:29;;;;;;;23.52;21.63;;;;;;;;;;5385799;26;20000;-96
2024/04/15 17:29:56;;;;;;;20.50;18.52;;;;;;;;;;5414902;26;20000;-95
2024/04/15 17:32:28;;;;;;;19.85;18.00;;;;;;;;;;5392135;26;19999;-96
2024/04/15 17:34:55;;;;;;;25.25;22.83;;;;;;;;;;5388098;26;20018;-95
2024/04/15 17:37:22;;;;;;;19.77;18.25;;;;;;;;;;5390324;26;20078;-95
2024/04/15 17:39:49;;;;;;;23.42;21.35;;;;;;;;;;5380729;26;20074;-95
2024/04/15 17:42:21;;;;;;;23.45;21.48;;;;;;;;;;5354116;26;20023;-93
2024/04/15 17:45:01;;;;;;;26.33;24.38;;;;;;;;;;5399517;26;19996;-95
2024/04/15 17:47:30;;;;;;;25.70;23.55;;;;;;;;;;5418577;26;20326;-93
2024/04/15 17:49:57;;;;;;;21.67;19.98;;;;;;;;;;5427526;26;20003;-96
2024/04/15 17:52:23;;;;;;;21.52;19.50;;;;;;;;;;5416550;26;20015;-95
2024/04/15 17:55:21;;;;;;;24.83;22.60;;;;;;;;;;5389544;26;20147;-96
2024/04/15 17:57:48;;;;;;;22.40;20.83;;;;;;;;;;5415598;26;20008;-94